createdAt,value
2022-12-05T00:01:26.285Z,6.00
2022-12-05T00:03:55.788Z,6.00
2022-12-05T00:06:23.495Z,5.90
2022-12-05T00:08:50.515Z,5.90
2022-12-05T00:11:24.130Z,5.90
2022-12-05T00:13:52.267Z,5.90
2022-12-05T00:16:21.196Z,6.00
2022-12-05T00:18:48.404Z,6.00
2022-12-05T00:21:20.990Z,5.90
2022-12-05T00:23:48.348Z,5.80
2022-12-05T00:26:15.266Z,5.90
2022-12-05T00:28:42.362Z,6.00
2022-12-05T00:31:12.481Z,6.00
2022-12-05T00:33:39.213Z,6.10
2022-12-05T00:36:15.552Z,6.10
2022-12-05T00:38:42.612Z,6.20
2022-12-05T00:41:12.812Z,6.20
2022-12-05T00:43:40.253Z,6.20
2022-12-05T00:46:12.864Z,6.20
2022-12-05T00:48:39.736Z,6.20
2022-12-05T00:51:18.834Z,6.00
2022-12-05T00:53:46.447Z,5.90
2022-12-05T00:56:18.806Z,6.00
2022-12-05T00:58:46.350Z,6.00
2022-12-05T01:01:28.833Z,6.10
2022-12-05T01:03:57.874Z,6.10
2022-12-05T01:06:26.170Z,6.70
2022-12-05T01:08:57.044Z,6.00
2022-12-05T01:11:24.809Z,6.10
2022-12-05T01:13:51.747Z,6.10
2022-12-05T01:16:29.421Z,6.10
2022-12-05T01:18:58.474Z,6.10
2022-12-05T01:21:25.954Z,6.10
2022-12-05T01:23:52.767Z,6.10
2022-12-05T01:26:21.475Z,6.20
2022-12-05T01:28:48.612Z,6.20
2022-12-05T01:31:21.367Z,6.10
2022-12-05T01:33:48.283Z,6.20
2022-12-05T01:36:15.020Z,6.20
2022-12-05T01:38:42.657Z,6.30
2022-12-05T01:41:13.598Z,6.30
2022-12-05T01:44:00.905Z,6.20
2022-12-05T01:46:30.957Z,6.30
2022-12-05T01:49:11.079Z,6.40
2022-12-05T01:51:40.252Z,6.20
2022-12-05T01:54:07.939Z,6.20
2022-12-05T01:56:36.567Z,6.20
2022-12-05T01:59:06.918Z,6.20
2022-12-05T02:01:34.309Z,6.20
2022-12-05T02:04:01.887Z,6.20
2022-12-05T02:06:29.040Z,6.20
2022-12-05T02:08:55.979Z,6.60
2022-12-05T02:11:24.913Z,6.30
2022-12-05T02:14:03.413Z,6.30
2022-12-05T02:16:49.501Z,6.30
2022-12-05T02:19:26.406Z,6.20
2022-12-05T02:22:30.605Z,6.30
2022-12-05T02:25:34.338Z,6.40
2022-12-05T02:28:28.641Z,6.40
2022-12-05T02:31:05.558Z,6.30
2022-12-05T02:33:36.306Z,6.30
2022-12-05T02:36:23.874Z,6.30
2022-12-05T02:39:03.892Z,6.20
2022-12-05T02:41:40.006Z,6.20
2022-12-05T02:44:20.745Z,6.20
2022-12-05T02:46:48.828Z,6.10
2022-12-05T02:49:23.565Z,6.10
2022-12-05T02:51:57.802Z,6.20
2022-12-05T02:54:33.861Z,6.30
2022-12-05T02:57:01.286Z,6.40
2022-12-05T02:59:28.572Z,6.50
2022-12-05T03:01:55.649Z,6.50
2022-12-05T03:04:24.824Z,6.40
2022-12-05T03:06:59.878Z,6.30
2022-12-05T03:09:37.041Z,6.40
2022-12-05T03:12:33.397Z,6.40
2022-12-05T03:15:24.541Z,6.40
2022-12-05T03:18:08.548Z,6.20
2022-12-05T03:20:52.391Z,6.30
2022-12-05T03:23:51.002Z,6.50
2022-12-05T03:26:55.190Z,6.50
2022-12-05T03:29:44.557Z,6.40
2022-12-05T03:32:24.730Z,6.40
2022-12-05T03:35:18.146Z,6.50
2022-12-05T03:37:53.614Z,5.90
2022-12-05T03:41:01.223Z,6.50
2022-12-05T03:43:43.650Z,6.40
2022-12-05T03:46:22.244Z,6.50
2022-12-05T03:49:07.279Z,6.60
2022-12-05T03:51:41.868Z,6.70
2022-12-05T03:54:22.341Z,6.70
2022-12-05T03:57:09.098Z,6.70
2022-12-05T03:59:49.837Z,6.70
2022-12-05T04:02:45.445Z,6.70
2022-12-05T04:05:21.222Z,6.60
2022-12-05T04:08:04.322Z,6.50
2022-12-05T04:10:48.333Z,6.60
2022-12-05T04:13:33.085Z,6.60
2022-12-05T04:16:28.855Z,6.50
2022-12-05T04:19:09.184Z,6.50
2022-12-05T04:21:42.051Z,6.50
2022-12-05T04:24:35.418Z,6.60
2022-12-05T04:27:26.904Z,6.60
2022-12-05T04:30:13.099Z,6.60
2022-12-05T04:33:00.989Z,6.50
2022-12-05T04:35:55.001Z,6.60
2022-12-05T04:38:47.848Z,6.70
2022-12-05T04:41:46.561Z,6.70
2022-12-05T04:44:19.082Z,6.70
2022-12-05T04:46:47.080Z,6.60
2022-12-05T04:49:18.981Z,6.60
2022-12-05T04:51:49.816Z,6.60
2022-12-05T04:54:31.799Z,6.70
2022-12-05T04:57:06.882Z,6.60
2022-12-05T04:59:33.553Z,6.40
2022-12-05T05:02:06.651Z,6.40
2022-12-05T05:04:47.068Z,6.40
2022-12-05T05:07:14.822Z,6.40
2022-12-05T05:09:41.917Z,6.40
2022-12-05T05:12:08.573Z,6.40
2022-12-05T05:14:35.292Z,6.40
2022-12-05T05:17:02.249Z,6.30
2022-12-05T05:19:29.809Z,6.40
2022-12-05T05:21:56.669Z,6.30
2022-12-05T05:24:23.574Z,6.30
2022-12-05T05:26:56.950Z,6.40
2022-12-05T05:29:23.819Z,6.40
2022-12-05T05:31:50.459Z,6.30
2022-12-05T05:34:17.080Z,6.30
2022-12-05T05:36:44.041Z,6.30
2022-12-05T05:39:13.749Z,6.30
2022-12-05T05:41:40.834Z,6.20
2022-12-05T05:44:07.453Z,6.10
2022-12-05T05:46:35.377Z,6.10
2022-12-05T05:49:02.129Z,6.10
2022-12-05T05:51:30.171Z,6.20
2022-12-05T05:53:58.698Z,6.20
2022-12-05T05:56:25.763Z,6.20
2022-12-05T05:58:58.249Z,6.10
2022-12-05T06:01:24.921Z,6.10
2022-12-05T06:03:52.075Z,6.10
2022-12-05T06:06:20.080Z,6.10
2022-12-05T06:08:46.831Z,6.10
2022-12-05T06:11:24.577Z,6.10
2022-12-05T06:13:53.306Z,6.10
2022-12-05T06:16:23.717Z,6.20
2022-12-05T06:18:51.349Z,6.20
2022-12-05T06:21:18.092Z,6.20
2022-12-05T06:23:45.185Z,6.30
2022-12-05T06:26:15.391Z,6.20
2022-12-05T06:28:42.399Z,6.10
2022-12-05T06:31:18.957Z,6.10
2022-12-05T06:33:46.313Z,6.00
2022-12-05T06:36:16.081Z,5.90
2022-12-05T06:38:42.908Z,5.90
2022-12-05T06:41:13.732Z,6.00
2022-12-05T06:43:41.121Z,6.30
2022-12-05T06:46:09.416Z,6.20
2022-12-05T06:48:36.172Z,6.10
2022-12-05T06:51:03.615Z,6.00
2022-12-05T06:53:30.472Z,5.90
2022-12-05T06:56:02.897Z,5.90
2022-12-05T06:58:30.822Z,5.80
2022-12-05T07:01:16.234Z,6.20
2022-12-05T07:03:48.176Z,6.50
2022-12-05T07:06:16.321Z,6.50
2022-12-05T07:08:43.494Z,6.40
2022-12-05T07:11:10.186Z,6.30
2022-12-05T07:13:36.850Z,6.30
2022-12-05T07:16:06.946Z,6.20
2022-12-05T07:18:34.488Z,6.30
2022-12-05T07:21:11.733Z,6.40
2022-12-05T07:23:40.215Z,6.50
2022-12-05T07:26:19.010Z,6.50
2022-12-05T07:28:46.266Z,6.50
2022-12-05T07:31:18.905Z,6.60
2022-12-05T07:33:46.066Z,6.50
2022-12-05T07:36:15.575Z,6.50
2022-12-05T07:38:43.260Z,6.40
2022-12-05T07:41:16.173Z,6.30
2022-12-05T07:43:42.800Z,6.30
2022-12-05T07:46:11.823Z,6.20
2022-12-05T07:48:39.342Z,6.30
2022-12-05T07:51:08.436Z,6.30
2022-12-05T07:53:35.907Z,6.30
2022-12-05T07:56:05.436Z,6.30
2022-12-05T07:58:33.276Z,6.20
2022-12-05T08:01:13.037Z,6.30
2022-12-05T08:03:39.980Z,6.10
2022-12-05T08:06:13.107Z,6.00
2022-12-05T08:08:39.880Z,6.00
2022-12-05T08:11:12.087Z,5.90
2022-12-05T08:13:39.510Z,6.00
2022-12-05T08:16:15.203Z,6.00
2022-12-05T08:18:42.648Z,6.10
2022-12-05T08:21:12.380Z,6.20
2022-12-05T08:23:40.129Z,6.20
2022-12-05T08:26:13.218Z,6.10
2022-12-05T08:28:40.631Z,6.10
2022-12-05T08:31:13.037Z,6.10
2022-12-05T08:33:40.193Z,6.00
2022-12-05T08:36:09.849Z,6.00
2022-12-05T08:38:36.889Z,6.10
2022-12-05T08:41:06.025Z,6.10
2022-12-05T08:43:33.727Z,6.20
2022-12-05T08:46:01.032Z,6.30
2022-12-05T08:48:29.882Z,6.30
2022-12-05T08:50:57.099Z,6.20
2022-12-05T08:53:23.712Z,6.20
2022-12-05T08:55:50.468Z,6.20
2022-12-05T08:58:17.181Z,6.30
2022-12-05T09:00:43.812Z,6.10
2022-12-05T09:03:12.070Z,6.10
2022-12-05T09:05:39.079Z,6.00
2022-12-05T09:08:05.807Z,6.10
2022-12-05T09:10:32.517Z,6.00
2022-12-05T09:12:59.130Z,6.00
2022-12-05T09:15:25.898Z,6.00
2022-12-05T09:17:52.536Z,6.10
2022-12-05T09:20:19.328Z,6.10
2022-12-05T09:22:45.915Z,6.20
2022-12-05T09:25:12.569Z,6.20
2022-12-05T09:27:39.243Z,6.20
2022-12-05T09:30:06.547Z,6.20
2022-12-05T09:32:33.355Z,6.20
2022-12-05T09:35:00.469Z,6.20
2022-12-05T09:37:42.150Z,6.20
2022-12-05T09:40:17.309Z,6.20
2022-12-05T09:43:06.723Z,7.00
2022-12-05T09:45:39.845Z,6.30
2022-12-05T09:48:12.386Z,5.50
2022-12-05T09:50:52.440Z,6.10
2022-12-05T09:53:32.308Z,6.10
2022-12-05T09:56:10.188Z,6.10
2022-12-05T09:58:41.799Z,6.10
2022-12-05T10:01:42.431Z,6.10
2022-12-05T10:04:22.871Z,6.00
2022-12-05T10:07:11.244Z,5.90
2022-12-05T10:10:18.527Z,6.00
2022-12-05T10:13:08.556Z,6.00
2022-12-05T10:15:42.750Z,6.00
2022-12-05T10:18:30.087Z,5.90
2022-12-05T10:20:59.061Z,6.00
2022-12-05T10:23:58.098Z,6.00
2022-12-05T10:26:33.454Z,6.00
2022-12-05T10:29:38.875Z,6.10
2022-12-05T10:32:15.565Z,6.00
2022-12-05T10:34:43.916Z,6.00
2022-12-05T10:37:21.942Z,5.90
2022-12-05T10:39:50.288Z,5.90
2022-12-05T10:42:25.362Z,6.00
2022-12-05T10:44:58.086Z,6.10
2022-12-05T10:47:25.523Z,6.10
2022-12-05T10:49:53.696Z,6.10
2022-12-05T10:52:20.369Z,6.50
2022-12-05T10:54:54.712Z,6.00
2022-12-05T10:57:27.372Z,6.00
2022-12-05T10:59:54.771Z,6.10
2022-12-05T11:02:33.681Z,6.10
2022-12-05T11:05:04.421Z,6.00
2022-12-05T11:07:44.893Z,5.90
2022-12-05T11:10:32.141Z,5.90
2022-12-05T11:12:59.535Z,5.90
2022-12-05T11:15:31.462Z,5.90
2022-12-05T11:18:17.524Z,5.90
2022-12-05T11:20:44.256Z,5.90
2022-12-05T11:23:25.410Z,6.00
2022-12-05T11:25:53.298Z,6.00
2022-12-05T11:28:19.919Z,6.10
2022-12-05T11:31:14.232Z,6.20
2022-12-05T11:33:41.326Z,6.10
2022-12-05T11:36:17.485Z,6.10
2022-12-05T11:38:44.289Z,5.80
2022-12-05T11:41:29.784Z,6.10
2022-12-05T11:44:12.280Z,6.00
2022-12-05T11:47:03.784Z,6.10
2022-12-05T11:49:37.948Z,6.00
2022-12-05T11:52:19.474Z,6.00
2022-12-05T11:55:04.962Z,6.10
2022-12-05T11:57:52.981Z,6.00
2022-12-05T12:00:26.754Z,6.00
2022-12-05T12:03:11.861Z,6.00
2022-12-05T12:05:50.368Z,6.00
2022-12-05T12:08:29.238Z,6.00
2022-12-05T12:11:16.991Z,6.10
2022-12-05T12:14:05.777Z,6.10
2022-12-05T12:16:42.479Z,6.10
2022-12-05T12:19:38.573Z,5.90
2022-12-05T12:22:11.974Z,5.90
2022-12-05T12:24:50.204Z,6.00
2022-12-05T12:27:40.867Z,6.00
2022-12-05T12:30:35.249Z,5.80
2022-12-05T12:33:39.268Z,5.80
2022-12-05T12:36:24.173Z,5.70
2022-12-05T12:38:52.300Z,5.70
2022-12-05T12:41:41.378Z,5.70
2022-12-05T12:44:29.060Z,5.50
2022-12-05T12:46:59.476Z,5.70
2022-12-05T12:49:44.817Z,5.70
2022-12-05T12:52:16.120Z,5.70
2022-12-05T12:55:05.218Z,5.60
2022-12-05T12:57:56.561Z,5.70
2022-12-05T13:00:51.780Z,5.70
2022-12-05T13:03:51.539Z,5.80
2022-12-05T13:06:24.800Z,5.70
2022-12-05T13:09:01.204Z,5.70
2022-12-05T13:11:33.821Z,5.60
2022-12-05T13:14:01.829Z,5.50
2022-12-05T13:16:37.101Z,5.70
2022-12-05T13:19:06.901Z,5.70
2022-12-05T13:21:33.819Z,5.70
2022-12-05T13:24:03.485Z,5.70
2022-12-05T13:26:32.754Z,5.60
2022-12-05T13:29:04.536Z,5.70
2022-12-05T13:31:45.522Z,5.60
2022-12-05T13:34:27.493Z,5.70
2022-12-05T13:37:14.156Z,5.70
2022-12-05T13:39:59.915Z,5.80
2022-12-05T13:42:30.395Z,5.70
2022-12-05T13:45:07.334Z,5.70
2022-12-05T13:48:04.161Z,5.50
2022-12-05T13:50:33.611Z,5.50
2022-12-05T13:53:06.372Z,5.60
2022-12-05T13:55:36.505Z,5.70
2022-12-05T13:58:21.954Z,5.70
2022-12-05T14:00:52.419Z,5.70
2022-12-05T14:03:22.040Z,5.60
2022-12-05T14:05:51.679Z,5.40
2022-12-05T14:08:30.544Z,5.40
2022-12-05T14:10:57.084Z,5.60
2022-12-05T14:13:23.756Z,5.70
2022-12-05T14:15:52.009Z,5.50
2022-12-05T14:18:22.541Z,5.50
2022-12-05T14:21:09.897Z,5.40
2022-12-05T14:23:59.821Z,5.40
2022-12-05T14:26:35.206Z,5.40
2022-12-05T14:29:36.382Z,5.40
2022-12-05T14:32:22.389Z,5.40
2022-12-05T14:34:56.391Z,5.20
2022-12-05T14:37:30.274Z,5.30
2022-12-05T14:40:02.760Z,5.50
2022-12-05T14:42:55.523Z,5.50
2022-12-05T14:45:35.216Z,5.50
2022-12-05T14:48:05.499Z,5.40
2022-12-05T14:50:48.190Z,5.40
2022-12-05T14:53:20.807Z,5.30
2022-12-05T14:56:21.498Z,5.30
2022-12-05T14:58:59.767Z,5.40
2022-12-05T15:02:03.284Z,5.50
2022-12-05T15:04:42.003Z,5.40
2022-12-05T15:07:12.912Z,5.40
2022-12-05T15:10:00.023Z,5.30
2022-12-05T15:12:41.894Z,5.40
2022-12-05T15:15:20.352Z,5.20
2022-12-05T15:17:51.684Z,5.20
2022-12-05T15:20:22.549Z,5.10
2022-12-05T15:22:49.255Z,5.20
2022-12-05T15:25:22.772Z,5.10
2022-12-05T15:28:17.348Z,5.20
2022-12-05T15:30:44.630Z,5.40
2022-12-05T15:33:13.064Z,5.20
2022-12-05T15:35:41.395Z,5.20
2022-12-05T15:38:25.571Z,5.10
2022-12-05T15:40:53.778Z,5.10
2022-12-05T15:43:30.877Z,5.10
2022-12-05T15:46:08.379Z,5.20
2022-12-05T15:48:35.487Z,5.20
2022-12-05T15:51:02.990Z,5.10
2022-12-05T15:53:42.481Z,5.10
2022-12-05T15:56:18.555Z,5.00
2022-12-05T15:58:48.220Z,5.00
2022-12-05T16:01:21.626Z,5.00
2022-12-05T16:04:29.762Z,5.00
2022-12-05T16:07:00.374Z,5.00
2022-12-05T16:09:31.944Z,5.00
2022-12-05T16:12:04.748Z,5.00
2022-12-05T16:17:24.627Z,5.20
2022-12-05T16:19:51.631Z,5.20
2022-12-05T16:22:23.081Z,5.10
2022-12-05T16:25:11.846Z,5.10
2022-12-05T16:27:39.320Z,5.00
2022-12-05T16:30:10.924Z,4.90
2022-12-05T16:32:38.953Z,5.00
2022-12-05T16:35:33.214Z,5.10
2022-12-05T16:38:27.231Z,5.10
2022-12-05T16:41:04.702Z,5.10
2022-12-05T16:43:31.801Z,5.00
2022-12-05T16:46:14.000Z,5.00
2022-12-05T16:48:44.432Z,4.90
2022-12-05T16:51:16.931Z,4.90
2022-12-05T16:53:52.970Z,5.00
2022-12-05T16:56:29.657Z,4.90
2022-12-05T16:58:56.886Z,4.90
2022-12-05T17:01:25.831Z,4.90
2022-12-05T17:03:56.229Z,4.70
2022-12-05T17:06:24.976Z,4.80
2022-12-05T17:08:53.377Z,4.90
2022-12-05T17:11:24.622Z,4.90
2022-12-05T17:13:52.014Z,5.00
2022-12-05T17:16:20.577Z,4.90
2022-12-05T17:18:47.431Z,4.90
2022-12-05T17:21:22.236Z,5.20
2022-12-05T17:23:49.108Z,5.30
2022-12-05T17:26:18.785Z,5.50
2022-12-05T17:28:45.677Z,5.40
2022-12-05T17:31:17.475Z,5.40
2022-12-05T17:33:45.940Z,5.40
2022-12-05T17:36:13.662Z,5.20
2022-12-05T17:38:40.428Z,5.10
2022-12-05T17:41:07.552Z,5.10
2022-12-05T17:43:34.484Z,5.20
2022-12-05T17:46:02.481Z,5.30
2022-12-05T17:48:29.334Z,5.80
2022-12-05T17:50:58.969Z,6.00
2022-12-05T17:53:25.678Z,6.00
2022-12-05T17:55:52.341Z,5.90
2022-12-05T17:58:19.037Z,5.70
2022-12-05T18:00:46.858Z,5.80
2022-12-05T18:03:17.840Z,6.00
2022-12-05T18:05:45.527Z,5.80
2022-12-05T18:08:13.289Z,5.70
2022-12-05T18:10:47.980Z,5.50
2022-12-05T18:13:15.960Z,5.50
2022-12-05T18:15:43.405Z,5.50
2022-12-05T18:18:17.821Z,5.50
2022-12-05T18:20:44.512Z,5.50
2022-12-05T18:23:11.777Z,6.20
2022-12-05T18:25:39.146Z,5.40
2022-12-05T18:28:05.860Z,5.40
2022-12-05T18:30:32.678Z,5.40
2022-12-05T18:32:59.325Z,5.50
2022-12-05T18:35:41.029Z,5.50
2022-12-05T18:38:10.577Z,5.40
2022-12-05T18:40:37.349Z,5.40
2022-12-05T18:43:03.986Z,5.50
2022-12-05T18:45:31.449Z,5.40
2022-12-05T18:48:09.921Z,5.50
2022-12-05T18:50:44.827Z,5.50
2022-12-05T18:53:11.423Z,5.70
2022-12-05T18:55:58.402Z,5.60
2022-12-05T18:58:24.549Z,5.60
2022-12-05T19:00:51.251Z,5.60
2022-12-05T19:03:17.903Z,5.60
2022-12-05T19:05:44.573Z,5.70
2022-12-05T19:08:11.257Z,5.60
2022-12-05T19:10:37.931Z,5.60
2022-12-05T19:13:04.518Z,5.60
2022-12-05T19:15:31.275Z,5.10
2022-12-05T19:17:57.945Z,5.70
2022-12-05T19:20:24.532Z,5.70
2022-12-05T19:22:54.130Z,5.70
2022-12-05T19:25:23.069Z,5.70
2022-12-05T19:27:49.683Z,5.60
2022-12-05T19:30:16.411Z,5.60
2022-12-05T19:32:43.141Z,5.50
2022-12-05T19:35:10.593Z,5.60
2022-12-05T19:37:37.236Z,5.60
2022-12-05T19:40:04.150Z,5.60
2022-12-05T19:42:31.456Z,5.60
2022-12-05T19:45:00.914Z,5.50
2022-12-05T19:47:30.144Z,5.60
2022-12-05T19:49:57.234Z,5.60
2022-12-05T19:52:24.113Z,5.50
2022-12-05T19:54:50.702Z,5.50
2022-12-05T19:57:18.040Z,5.50
2022-12-05T19:59:44.684Z,5.50
2022-12-05T20:02:11.838Z,5.40
2022-12-05T20:04:38.493Z,5.40
2022-12-05T20:07:05.104Z,5.40
2022-12-05T20:09:31.712Z,5.50
2022-12-05T20:11:58.327Z,5.50
2022-12-05T20:14:25.455Z,5.40
2022-12-05T20:16:52.470Z,5.40
2022-12-05T20:19:19.143Z,5.40
2022-12-05T20:21:45.749Z,5.30
2022-12-05T20:24:12.486Z,5.30
2022-12-05T20:26:42.084Z,5.30
2022-12-05T20:29:09.029Z,5.20
2022-12-05T20:31:38.463Z,5.30
2022-12-05T20:34:06.226Z,5.40
2022-12-05T20:36:34.586Z,5.50
2022-12-05T20:39:11.292Z,5.50
2022-12-05T20:41:37.996Z,5.60
2022-12-05T20:44:07.457Z,5.60
2022-12-05T20:46:35.268Z,5.70
2022-12-05T20:49:02.355Z,5.70
2022-12-05T20:51:31.078Z,5.60
2022-12-05T20:53:58.960Z,5.50
2022-12-05T20:56:28.426Z,5.40
2022-12-05T20:58:57.205Z,5.40
2022-12-05T21:01:26.041Z,5.50
2022-12-05T21:03:53.612Z,5.40
2022-12-05T21:06:26.014Z,5.50
2022-12-05T21:08:53.599Z,5.50
2022-12-05T21:11:21.287Z,5.50
2022-12-05T21:13:47.965Z,5.60
2022-12-05T21:16:18.300Z,5.50
2022-12-05T21:18:46.023Z,5.50
2022-12-05T21:21:15.950Z,5.60
2022-12-05T21:23:44.020Z,5.50
2022-12-05T21:26:13.862Z,5.50
2022-12-05T21:28:41.930Z,5.40
2022-12-05T21:31:13.021Z,5.40
2022-12-05T21:33:41.392Z,5.40
2022-12-05T21:36:08.960Z,5.50
2022-12-05T21:38:35.918Z,5.50
2022-12-05T21:41:03.801Z,5.50
2022-12-05T21:43:30.778Z,5.50
2022-12-05T21:45:57.531Z,5.50
2022-12-05T21:48:24.941Z,5.30
2022-12-05T21:50:52.394Z,5.30
2022-12-05T21:53:19.845Z,5.40
2022-12-05T21:55:47.057Z,5.40
2022-12-05T21:58:14.141Z,5.40
2022-12-05T22:00:40.819Z,5.40
2022-12-05T22:03:07.521Z,5.50
2022-12-05T22:05:34.259Z,5.50
2022-12-05T22:08:05.957Z,5.50
2022-12-05T22:10:35.952Z,5.50
2022-12-05T22:13:03.110Z,5.60
2022-12-05T22:15:29.753Z,5.80
2022-12-05T22:17:56.442Z,5.90
2022-12-05T22:20:23.051Z,5.90
2022-12-05T22:22:49.680Z,5.80
2022-12-05T22:25:16.364Z,5.80
2022-12-05T22:27:42.958Z,5.80
2022-12-05T22:30:09.785Z,5.80
2022-12-05T22:32:36.390Z,5.80
2022-12-05T22:35:04.243Z,5.90
2022-12-05T22:37:31.440Z,5.80
2022-12-05T22:39:58.404Z,5.80
2022-12-05T22:42:27.025Z,5.80
2022-12-05T22:44:53.655Z,5.80
2022-12-05T22:47:20.403Z,5.80
2022-12-05T22:49:47.112Z,5.70
2022-12-05T22:52:13.768Z,5.80
2022-12-05T22:54:40.364Z,5.80
2022-12-05T22:57:06.995Z,5.80
2022-12-05T22:59:33.603Z,5.90
2022-12-05T23:02:00.309Z,5.80
2022-12-05T23:04:27.026Z,5.70
2022-12-05T23:06:53.671Z,5.70
2022-12-05T23:09:20.732Z,5.70
2022-12-05T23:11:50.419Z,5.70
2022-12-05T23:14:17.052Z,5.80
2022-12-05T23:16:43.789Z,5.90
2022-12-05T23:19:10.447Z,5.90
2022-12-05T23:21:40.638Z,5.90
2022-12-05T23:24:10.260Z,6.00
2022-12-05T23:26:45.447Z,5.90
2022-12-05T23:29:13.466Z,5.90
2022-12-05T23:31:41.315Z,5.80
2022-12-05T23:34:08.849Z,5.90
2022-12-05T23:36:35.668Z,5.80
2022-12-05T23:39:03.483Z,5.70
2022-12-05T23:41:30.387Z,5.70
2022-12-05T23:43:57.307Z,5.70
2022-12-05T23:46:26.304Z,5.60
2022-12-05T23:48:53.593Z,5.50
2022-12-05T23:51:22.594Z,5.50
2022-12-05T23:53:54.014Z,5.50
2022-12-05T23:56:23.407Z,5.60
2022-12-05T23:58:50.524Z,5.50
